Aberdeen, SD

11:50 AM CST on February 07, 2016 (GMT -0600)
St. Mary's Church | | Change Station
CLOSE
Current Station
Personal Weather Station
Location: Aberdeen, SD
Elevation: 1302 ft
Nearby Weather Stations
Active Advisory: High Wind Warning

Elev 1302 ft 45.47 °N, 98.48 °W | Updated 1 second ago

Overcast
Overcast
34.5 °F
Feels Like 26 °F
N
12.8
Wind Variable Wind from NNW
Gusts 15.0 mph

Today
High -- | Low -- °F
--% Chance of Precip.
Yesterday
High -- | Low -- °F
Precip. -- in
Pressure 29.81 in
Visibility 9.0 miles
Clouds Scattered Clouds 2700 ft
Overcast 3800 ft
Windchill 26 °F
Dew Point 27 °F
Humidity 74%
Rainfall 0.00 in
Snow Depth Not available.
7:47 AM 5:48 PM
Waning Crescent, 1% visible
SPECI KABR 071735Z AUTO 32034G46KT 9SM SCT027 OVC038 02/M04 A2981 RMK AO2 PK WND 32046/1734 SNE1654B13E23 P0000 T00221039
Pressure 29.81 in
Visibility 9.0 miles
Clouds Scattered Clouds 2700 ft
Overcast 3800 ft
Windchill 26 °F
Dew Point 27 °F
Humidity 74%
Rainfall 0.00 in
Snow Depth Not available.
7:47 AM 5:48 PM
Waning Crescent, 1% visible
SPECI KABR 071735Z AUTO 32034G46KT 9SM SCT027 OVC038 02/M04 A2981 RMK AO2 PK WND 32046/1734 SNE1654B13E23 P0000 T00221039

10-Day Weather Forecast

Almanac

Astronomy

Feb. 07, 2016 Rise Set
Actual Time
Civil Twilight
Nautical Twilight
Astronomical Twilight
Moon
Length of Visible Light
Length of Day
Tomorrow will be .
, % of the Moon is Illuminated

Today's Extremes

State Highs State Lows

Community

WunderPhotos

Upload Photos

1,891,248 photos uploaded!

WunderBlog® & News

Nearby

Air Quality

  Air Quality AQ Index Pollutant
Not available.

Snow Depth

Station Depth Elevation

Earthquake Activity

City Distance Mag. Time & Date
Minimum magnitude displayed is 2.5.

Coastal Water Temperatures

Place Temperature

Stations

Nearby Weather Stations

Station Location Temp. Windchill Dew Point Humidity Wind Precip. Elev Updated Type
                   

Watches & Warnings

High Wind Warning
Issued: 10:32 AM CST Feb. 7, 2016 – National Weather Service

... High Wind Warning remains in effect until midnight CST
tonight...

* winds... northwest 30 to 40 mph with gusts up to 55 mph
possible.

* Snow/visibility... scattered snow showers will continue across
the area today. Periods of low visibility are possible within
heavier snow showers.

* Impacts... high profile vehicles will likely be affected.
Strong winds can create flying debris. Gusts over 60 mph can
cause property damage. Travel may be hazardous at times today
due to low visibility in snow showers.

Precautionary/preparedness actions...

A High Wind Warning means a hazardous high wind event is expected
or occurring. Sustained wind speeds of at least 40 mph or gusts
of 58 mph or more can lead to property damage.